BIRKSBPA

Guest
Details From BIRK - Reykjavik
To SBPA - Salgado Filho
Flight Number -
Tags Generated
Created
Modified
Stats Distance 5,819 nm / 10,778 km
Max Altitude 0 ft / 0 m
Waypoints 5
Social Downloads 1
Likes 0
Share VATSIM

Download

Looking for another format? Having issues loading an existing format? Contact us
Advertisement - Login to hide

Notes

Generated

Route

BIRK LIPE KNAVE COA SBPA

ID Type Via Altitude Latitude Longitude Leg Dist Tot Dist Heading (true) Name
O BIRK APT - 0 ft / 0 m 64.12743˚ -21.94699˚ - 0 nm - -
LIPE FIX - 0 ft / 0 m -15.45583˚ -47.89667˚ 4927 nm 4927 nm 205° / 191° -
KNAVE FIX - 0 ft / 0 m -22.84567˚ -49.46917˚ 452 nm 5380 nm 191° / 192° -
COA VOR - 0 ft / 0 m -29.95016˚ -51.14590˚ 436 nm 5816 nm 192° / 192° CANOAS VOR-DME
O SBPA APT - 0 ft / 0 m -29.99414˚ -51.18327˚ 3 nm 5819 nm 216° / 216° -

Altitude Profile

Advertisement - Login to hide

Weather


0- 5 10 15 20 25 30 35+ Temperature / ° C

Clouds and Precipitation
Forecast for 2017-12-18 06:00 UTC. Updated 9 minutes ago

Ground ~20,000 ft ~40,000 ft Winds

BIRK

Details ICAO BIRK (RKV)
Name Reykjavik
Region Iceland
Timezone Atlantic/Reykjavik (UTC+0.0)
Stats Elevation 47 ft / 14 m (AMSL)
Location 64.129644° -21.940609°
Runways 3
Magnetic Variation 13.772° W

METAR

BIRK 180300Z 11017KT 9999 FEW025 BKN032 05/01 Q0992

Decode

TAF

TAF BIRK 180133Z 1803/1903 13020G30KT 9000 -RADZ BKN015 OVC025 TX08/1805Z TN03/1803Z BECMG 1804/1806 16012KT SCT018 BKN035 TEMPO 1813/1823 RADZ OVC015 BECMG 1900/1903 22017G30KT

Decode

Departure Runways

ID Width Length Bearing (true) Bearing (mag) Surface Threshold Offset Overrun Length
01 148 ft / 45 m 5,129 ft / 1,563 m 355.27° 9.04° Asphalt 262 ft / 80 m 0 ft / 0 m
06 98 ft / 30 m 2,800 ft / 853 m 46.35° 60.12° Asphalt 299 ft / 91 m 0 ft / 0 m
13 148 ft / 45 m 4,023 ft / 1,226 m 116.28° 130.05° Asphalt 0 ft / 0 m 0 ft / 0 m
19 148 ft / 45 m 5,129 ft / 1,563 m 175.27° 189.04° Asphalt 0 ft / 0 m 0 ft / 0 m
24 98 ft / 30 m 2,800 ft / 853 m 226.37° 240.14° Asphalt 0 ft / 0 m 0 ft / 0 m
31 148 ft / 45 m 4,023 ft / 1,226 m 296.30° 310.07° Asphalt 213 ft / 65 m 0 ft / 0 m

SBPA

Details ICAO SBPA (POA)
Name Salgado Filho
Region Brazil
Timezone America/Sao_Paulo (UTC-2.0)
Stats Elevation 11 ft / 3 m (AMSL)
Location -29.994428° -51.171426°
Runways 1
Magnetic Variation 16.880° W

METAR

SBPA 180300Z 17011G21KT 140V200 6000 BKN010 OVC015 20/19 Q1017

Decode

TAF

Not found

Destination Runways

ID Width Length Bearing (true) Bearing (mag) Surface Threshold Offset Overrun Length
11 138 ft / 42 m 7,487 ft / 2,282 m 91.60° 108.48° Asphalt 0 ft / 0 m 230 ft / 70 m
29 138 ft / 42 m 7,487 ft / 2,282 m 271.59° 288.47° Asphalt 0 ft / 0 m 197 ft / 60 m

Approach Navaids

Runway Type Ident Frequency Range Bearing (true) Bearing (mag) Slope Elevation
11 Localiser IPA 110.30 MHz 18 nm / 33 km 90.92° 107.80° - 11 ft / 3 m (AMSL)
11 Glidescope IPA 110.30 MHz 10 nm / 19 km 91.60° 108.48° 3.00° 11 ft / 3 m (AMSL)